Time;durP1;ratioP1;P1;durP2;ratioP2;P2;SDS_P1;SDS_P2;PMS_P1;PMS_P2;Temp;Humidity;BMP_temperature;BMP_pressure;BME280_temperature;BME280_humidity;BME280_pressure;Samples;Min_cycle;Max_cycle;Signal;HPM_P1;HPM_P2
2023/10/30 00:00:15;;;;;;;6.15;1.40;;;;;;;;;;5101906;28;20047;-62
2023/10/30 00:02:43;;;;;;;4.85;1.50;;;;;;;;;;5083683;28;20064;-62
2023/10/30 00:05:11;;;;;;;4.30;1.35;;;;;;;;;;5074576;28;20079;-62
2023/10/30 00:07:38;;;;;;;6.82;1.65;;;;;;;;;;5074227;28;20063;-62
2023/10/30 00:10:06;;;;;;;6.88;1.60;;;;;;;;;;5073939;28;20071;-62
2023/10/30 00:12:33;;;;;;;4.03;1.38;;;;;;;;;;5074025;28;20060;-61
2023/10/30 00:15:02;;;;;;;5.35;1.30;;;;;;;;;;5074302;28;20486;-61
2023/10/30 00:17:30;;;;;;;;;;;;;;;;;;5085406;28;20044;-61
2023/10/30 00:19:58;;;;;;;5.20;1.55;;;;;;;;;;5094910;28;19920;-61
2023/10/30 00:22:25;;;;;;;5.80;1.30;;;;;;;;;;5094501;28;20481;-61
2023/10/30 00:24:52;;;;;;;5.43;1.33;;;;;;;;;;5094018;28;20059;-61
2023/10/30 00:27:19;;;;;;;5.55;1.42;;;;;;;;;;5093546;28;20062;-61
2023/10/30 00:29:45;;;;;;;9.68;1.70;;;;;;;;;;5094377;28;20067;-61
2023/10/30 00:32:12;;;;;;;7.28;2.13;;;;;;;;;;5095368;28;20400;-61
2023/10/30 00:34:40;;;;;;;6.63;1.52;;;;;;;;;;5114282;28;20047;-62
2023/10/30 00:37:09;;;;;;;6.75;1.85;;;;;;;;;;5114118;28;20051;-62
2023/10/30 00:39:37;;;;;;;;;;;;;;;;;;5114940;28;20056;-62
2023/10/30 00:42:03;;;;;;;5.30;1.13;;;;;;;;;;5104325;28;19927;-62
2023/10/30 00:44:30;;;;;;;8.50;1.75;;;;;;;;;;5093746;28;20075;-61
2023/10/30 00:46:57;;;;;;;5.95;1.50;;;;;;;;;;5092263;28;20047;-61
2023/10/30 00:49:24;;;;;;;6.25;1.63;;;;;;;;;;5093711;28;20056;-62
2023/10/30 00:51:51;;;;;;;5.70;1.25;;;;;;;;;;5093859;28;20052;-61
2023/10/30 00:54:19;;;;;;;5.80;1.30;;;;;;;;;;5093550;28;20059;-61
2023/10/30 00:56:46;;;;;;;9.65;1.70;;;;;;;;;;5093569;28;20052;-62
2023/10/30 00:59:12;;;;;;;5.72;1.02;;;;;;;;;;5113957;28;20059;-62
2023/10/30 01:01:39;;;;;;;4.13;1.33;;;;;;;;;;5104103;28;20051;-62
2023/10/30 01:04:07;;;;;;;6.45;1.60;;;;;;;;;;5093543;28;20052;-62
2023/10/30 01:06:34;;;;;;;6.15;1.33;;;;;;;;;;5104069;28;20075;-62
2023/10/30 01:09:00;;;;;;;6.75;1.60;;;;;;;;;;5114033;28;20058;-62
2023/10/30 01:11:29;;;;;;;5.78;1.25;;;;;;;;;;5114191;28;20055;-62
2023/10/30 01:13:55;;;;;;;5.80;1.15;;;;;;;;;;5113715;28;20062;-62
2023/10/30 01:16:22;;;;;;;4.82;1.20;;;;;;;;;;5115751;27;20051;-62
2023/10/30 01:18:49;;;;;;;6.65;1.83;;;;;;;;;;5134249;27;20051;-62
2023/10/30 01:21:17;;;;;;;5.32;1.30;;;;;;;;;;5133735;27;20051;-62
2023/10/30 01:23:43;;;;;;;5.18;1.42;;;;;;;;;;5133708;27;20047;-62
2023/10/30 01:26:10;;;;;;;6.50;1.38;;;;;;;;;;5134319;27;20051;-62
2023/10/30 01:28:39;;;;;;;10.10;1.88;;;;;;;;;;5134040;27;20050;-62
2023/10/30 01:31:05;;;;;;;5.32;1.45;;;;;;;;;;5125037;27;20055;-62
2023/10/30 01:33:32;;;;;;;5.97;1.30;;;;;;;;;;5113215;28;20059;-62
2023/10/30 01:35:59;;;;;;;6.22;1.60;;;;;;;;;;5113362;28;20058;-62
2023/10/30 01:38:26;;;;;;;4.80;1.38;;;;;;;;;;5113109;28;20047;-62
2023/10/30 01:40:53;;;;;;;8.40;1.80;;;;;;;;;;5112733;28;20060;-62
2023/10/30 01:43:28;;;;;;;4.78;1.25;;;;;;;;;;5093102;28;20056;-62
2023/10/30 01:45:56;;;;;;;4.93;1.20;;;;;;;;;;5104531;27;20051;-62
2023/10/30 01:48:23;;;;;;;4.57;1.40;;;;;;;;;;5132919;27;20062;-62
2023/10/30 01:50:50;;;;;;;5.00;1.30;;;;;;;;;;5133886;27;20054;-62
2023/10/30 01:53:18;;;;;;;6.40;1.48;;;;;;;;;;5114356;27;20059;-62
2023/10/30 01:55:45;;;;;;;4.88;1.80;;;;;;;;;;5113580;28;20491;-62
2023/10/30 01:58:12;;;;;;;9.52;1.75;;;;;;;;;;5113083;28;20059;-62
2023/10/30 02:00:39;;;;;;;5.65;1.45;;;;;;;;;;5098489;28;20044;-62
2023/10/30 02:03:10;;;;;;;6.40;1.50;;;;;;;;;;5109331;28;20066;-62
2023/10/30 02:05:37;;;;;;;7.53;1.67;;;;;;;;;;5113261;28;20056;-62
2023/10/30 02:08:04;;;;;;;6.55;1.55;;;;;;;;;;5113129;28;20392;-62
2023/10/30 02:10:33;;;;;;;8.23;2.20;;;;;;;;;;5113300;28;20052;-62
2023/10/30 02:13:00;;;;;;;5.10;1.38;;;;;;;;;;5112892;28;20052;-62
2023/10/30 02:15:27;;;;;;;6.38;1.55;;;;;;;;;;5111128;28;20055;-62
2023/10/30 02:17:53;;;;;;;6.55;1.88;;;;;;;;;;5092104;28;20055;-62
2023/10/30 02:20:21;;;;;;;5.55;1.50;;;;;;;;;;5092505;28;20466;-62
2023/10/30 02:22:55;;;;;;;5.35;1.27;;;;;;;;;;5107045;28;20054;-62
2023/10/30 02:25:23;;;;;;;5.72;2.08;;;;;;;;;;5113386;28;20052;-62
2023/10/30 02:27:50;;;;;;;5.90;1.50;;;;;;;;;;5112640;28;20484;-62
2023/10/30 02:30:17;;;;;;;5.00;1.60;;;;;;;;;;5113210;28;20058;-62
2023/10/30 02:32:47;;;;;;;6.43;1.27;;;;;;;;;;5129635;28;20055;-62
2023/10/30 02:35:14;;;;;;;5.13;1.52;;;;;;;;;;5133469;28;20098;-62
2023/10/30 02:37:41;;;;;;;5.55;1.35;;;;;;;;;;5132897;28;20526;-62
2023/10/30 02:40:09;;;;;;;8.93;1.65;;;;;;;;;;5133231;28;20058;-62
2023/10/30 02:42:38;;;;;;;7.53;1.67;;;;;;;;;;5118427;28;20047;-62
2023/10/30 02:45:05;;;;;;;3.92;1.33;;;;;;;;;;5112251;28;20056;-60
2023/10/30 02:47:34;;;;;;;5.47;1.73;;;;;;;;;;5129905;28;20047;-62
2023/10/30 02:50:01;;;;;;;5.60;1.20;;;;;;;;;;5112550;28;20052;-62
2023/10/30 02:52:32;;;;;;;6.13;1.83;;;;;;;;;;5116020;28;20054;-62
2023/10/30 02:54:59;;;;;;;4.90;1.65;;;;;;;;;;5100384;28;20397;-62
2023/10/30 02:57:26;;;;;;;8.23;1.75;;;;;;;;;;5095755;28;20048;-62
2023/10/30 02:59:54;;;;;;;6.25;1.70;;;;;;;;;;5095454;28;20079;-61
2023/10/30 03:02:21;;;;;;;3.88;1.40;;;;;;;;;;5094380;28;20052;-62
2023/10/30 03:04:48;;;;;;;6.00;1.88;;;;;;;;;;5095370;28;20056;-62
2023/10/30 03:07:15;;;;;;;6.20;1.30;;;;;;;;;;5095454;28;20052;-62
2023/10/30 03:09:42;;;;;;;10.13;2.42;;;;;;;;;;5096156;28;20059;-62
2023/10/30 03:12:09;;;;;;;4.30;1.20;;;;;;;;;;5095719;28;20056;-62
2023/10/30 03:14:36;;;;;;;8.90;1.50;;;;;;;;;;5095531;28;20386;-62
2023/10/30 03:17:05;;;;;;;5.10;1.75;;;;;;;;;;5096223;28;20488;-62
2023/10/30 03:19:32;;;;;;;8.35;1.60;;;;;;;;;;5095670;28;20052;-62
2023/10/30 03:21:59;;;;;;;6.25;1.60;;;;;;;;;;5093206;28;20056;-61
2023/10/30 03:24:26;;;;;;;5.38;1.63;;;;;;;;;;5084480;28;20063;-62
2023/10/30 03:26:52;;;;;;;4.75;1.33;;;;;;;;;;5074738;28;20053;-62
2023/10/30 03:29:22;;;;;;;5.43;1.50;;;;;;;;;;5073428;28;20474;-62
2023/10/30 03:31:52;;;;;;;6.18;1.20;;;;;;;;;;5111984;28;20059;-62
2023/10/30 03:34:21;;;;;;;4.10;1.50;;;;;;;;;;5115191;28;20051;-62
2023/10/30 03:36:48;;;;;;;6.70;1.83;;;;;;;;;;5116023;28;20051;-62
2023/10/30 03:39:15;;;;;;;6.50;1.50;;;;;;;;;;5115249;28;20054;-62
2023/10/30 03:41:44;;;;;;;6.75;1.42;;;;;;;;;;5108585;28;20405;-62
2023/10/30 03:44:11;;;;;;;5.80;1.77;;;;;;;;;;5094485;28;20063;-61
2023/10/30 03:46:38;;;;;;;4.68;1.42;;;;;;;;;;5084323;28;20075;-62
2023/10/30 03:49:05;;;;;;;7.43;1.45;;;;;;;;;;5074407;28;20068;-63
2023/10/30 03:51:34;;;;;;;4.85;1.70;;;;;;;;;;5074793;28;20060;-62
2023/10/30 03:54:03;;;;;;;5.80;1.30;;;;;;;;;;5074746;28;20056;-60
2023/10/30 03:56:30;;;;;;;5.38;1.35;;;;;;;;;;5079239;28;20071;-62
2023/10/30 03:59:00;;;;;;;6.97;1.20;;;;;;;;;;5115236;28;20066;-62
2023/10/30 04:01:26;;;;;;;6.88;1.23;;;;;;;;;;5129154;27;20388;-63
2023/10/30 04:03:54;;;;;;;8.55;1.58;;;;;;;;;;5134363;27;20046;-62
2023/10/30 04:06:21;;;;;;;5.30;1.40;;;;;;;;;;5124438;27;20515;-62
2023/10/30 04:08:52;;;;;;;6.43;1.50;;;;;;;;;;5135871;27;20051;-61
2023/10/30 04:11:19;;;;;;;4.95;1.40;;;;;;;;;;5135708;27;20062;-62
2023/10/30 04:13:46;;;;;;;7.15;1.85;;;;;;;;;;5135442;27;20054;-62
2023/10/30 04:16:16;;;;;;;7.35;1.60;;;;;;;;;;5120087;27;20404;-62
2023/10/30 04:18:43;;;;;;;4.75;1.60;;;;;;;;;;5114296;28;20095;-62
2023/10/30 04:21:10;;;;;;;6.35;1.55;;;;;;;;;;5114755;28;20056;-61
2023/10/30 04:23:38;;;;;;;6.15;1.65;;;;;;;;;;5115166;28;20059;-61
2023/10/30 04:26:06;;;;;;;5.85;1.30;;;;;;;;;;5114968;28;20488;-61
2023/10/30 04:28:33;;;;;;;7.00;1.30;;;;;;;;;;5114965;28;20043;-61
2023/10/30 04:30:59;;;;;;;4.95;1.40;;;;;;;;;;5123545;27;20051;-61
2023/10/30 04:33:26;;;;;;;5.43;1.73;;;;;;;;;;5135132;27;20047;-61
2023/10/30 04:35:53;;;;;;;6.70;2.10;;;;;;;;;;5134661;27;20050;-61
2023/10/30 04:38:20;;;;;;;5.55;1.80;;;;;;;;;;5134592;27;20054;-61
2023/10/30 04:40:47;;;;;;;4.70;1.55;;;;;;;;;;5135050;27;20136;-62
2023/10/30 04:43:17;;;;;;;7.47;1.60;;;;;;;;;;5114913;27;20052;-62
2023/10/30 04:45:44;;;;;;;6.93;1.67;;;;;;;;;;5112818;28;20055;-62
2023/10/30 04:48:11;;;;;;;6.32;1.75;;;;;;;;;;5114162;28;20055;-62
2023/10/30 04:50:38;;;;;;;6.45;1.58;;;;;;;;;;5114758;28;20412;-62
2023/10/30 04:53:05;;;;;;;7.82;1.70;;;;;;;;;;5114208;28;20051;-61
2023/10/30 04:55:31;;;;;;;4.10;1.52;;;;;;;;;;5114467;28;20051;-61
2023/10/30 04:57:58;;;;;;;8.30;2.03;;;;;;;;;;5114424;28;20062;-62
2023/10/30 05:00:27;;;;;;;4.57;1.20;;;;;;;;;;5122605;27;20408;-62
2023/10/30 05:02:54;;;;;;;5.88;2.25;;;;;;;;;;5134743;27;20054;-62
2023/10/30 05:05:20;;;;;;;6.38;1.45;;;;;;;;;;5134700;27;20051;-62
2023/10/30 05:07:47;;;;;;;4.97;1.70;;;;;;;;;;5134452;27;20051;-62
2023/10/30 05:10:14;;;;;;;6.95;1.38;;;;;;;;;;5134509;27;20070;-62
2023/10/30 05:12:41;;;;;;;8.80;1.80;;;;;;;;;;5134341;27;20063;-62
2023/10/30 05:15:09;;;;;;;8.18;1.60;;;;;;;;;;5104390;27;20056;-62
2023/10/30 05:17:38;;;;;;;5.57;1.60;;;;;;;;;;5093030;28;20485;-62
2023/10/30 05:20:06;;;;;;;5.60;1.50;;;;;;;;;;5093646;28;20055;-62
2023/10/30 05:22:33;;;;;;;4.63;1.33;;;;;;;;;;5096002;28;20484;-62
2023/10/30 05:25:01;;;;;;;8.00;1.55;;;;;;;;;;5114132;28;20055;-62
2023/10/30 05:27:28;;;;;;;4.50;1.50;;;;;;;;;;5113731;28;20043;-63
2023/10/30 05:29:56;;;;;;;9.93;1.50;;;;;;;;;;5103574;27;20048;-62
2023/10/30 05:32:23;;;;;;;6.85;1.83;;;;;;;;;;5105052;27;20055;-62
2023/10/30 05:34:52;;;;;;;5.68;1.50;;;;;;;;;;5098045;28;20047;-62
2023/10/30 05:37:19;;;;;;;6.95;1.23;;;;;;;;;;5095070;28;20052;-62
2023/10/30 05:39:50;;;;;;;9.88;1.92;;;;;;;;;;5107488;28;20067;-62
2023/10/30 05:42:16;;;;;;;8.68;2.22;;;;;;;;;;5112704;28;20055;-62
2023/10/30 05:44:43;;;;;;;5.63;1.38;;;;;;;;;;5114729;27;20050;-62
2023/10/30 05:47:10;;;;;;;3.47;1.40;;;;;;;;;;5132246;27;20503;-62
2023/10/30 05:49:37;;;;;;;6.10;1.42;;;;;;;;;;5075691;28;20072;-62
2023/10/30 05:52:06;;;;;;;5.05;1.20;;;;;;;;;;5088155;28;20056;-61
2023/10/30 05:54:33;;;;;;;8.90;1.70;;;;;;;;;;5082397;28;20057;-60
2023/10/30 05:57:00;;;;;;;5.05;1.30;;;;;;;;;;5072437;28;20508;-62
2023/10/30 05:59:26;;;;;;;7.32;2.28;;;;;;;;;;5075236;28;20056;-62
2023/10/30 06:01:53;;;;;;;4.90;2.00;;;;;;;;;;5092355;28;20071;-63
2023/10/30 06:04:20;;;;;;;5.35;1.50;;;;;;;;;;5091955;28;20044;-62
2023/10/30 06:06:47;;;;;;;6.38;1.50;;;;;;;;;;5080229;28;20060;-62
2023/10/30 06:09:15;;;;;;;5.47;1.70;;;;;;;;;;5093068;28;20401;-62
2023/10/30 06:11:46;;;;;;;7.35;1.48;;;;;;;;;;5091547;28;20052;-62
2023/10/30 06:14:13;;;;;;;8.73;1.88;;;;;;;;;;5091983;28;20052;-62
2023/10/30 06:16:40;;;;;;;5.40;1.33;;;;;;;;;;5073176;28;20063;-62
2023/10/30 06:19:07;;;;;;;5.78;1.52;;;;;;;;;;5085124;28;20051;-62
2023/10/30 06:21:35;;;;;;;9.70;1.40;;;;;;;;;;5091329;28;20047;-61
2023/10/30 06:24:01;;;;;;;8.38;1.73;;;;;;;;;;5091312;28;20055;-62
2023/10/30 06:26:30;;;;;;;5.95;1.50;;;;;;;;;;5093876;28;20048;-62
2023/10/30 06:28:57;;;;;;;7.15;1.70;;;;;;;;;;5095582;28;20052;-62
2023/10/30 06:31:24;;;;;;;10.88;1.85;;;;;;;;;;5096794;28;20052;-61
2023/10/30 06:33:51;;;;;;;9.70;1.70;;;;;;;;;;5095364;28;20055;-61
2023/10/30 06:36:17;;;;;;;4.68;1.65;;;;;;;;;;5095867;28;20048;-62
2023/10/30 06:38:44;;;;;;;8.52;2.42;;;;;;;;;;5109365;28;20066;-62
2023/10/30 06:41:11;;;;;;;4.93;1.63;;;;;;;;;;5085101;28;20052;-62
2023/10/30 06:43:39;;;;;;;6.25;1.83;;;;;;;;;;5087502;28;20051;-61
2023/10/30 06:46:08;;;;;;;5.47;1.60;;;;;;;;;;5089595;28;20417;-62
2023/10/30 06:48:35;;;;;;;5.82;1.60;;;;;;;;;;5090258;28;20051;-45
2023/10/30 06:51:01;;;;;;;5.28;1.67;;;;;;;;;;5086588;28;20057;-46
2023/10/30 06:53:28;;;;;;;6.15;1.65;;;;;;;;;;5099420;28;20052;-46
2023/10/30 06:55:55;;;;;;;3.97;1.65;;;;;;;;;;5086099;28;20052;-68
2023/10/30 06:58:24;;;;;;;3.78;1.50;;;;;;;;;;5092703;28;20052;-63
2023/10/30 07:00:52;;;;;;;10.73;2.15;;;;;;;;;;5083816;28;20051;-63
2023/10/30 07:03:19;;;;;;;7.68;2.47;;;;;;;;;;5094602;28;20488;-65
2023/10/30 07:05:46;;;;;;;7.72;2.00;;;;;;;;;;5088539;28;20511;-65
2023/10/30 07:08:13;;;;;;;8.60;1.55;;;;;;;;;;5087474;28;20488;-65
2023/10/30 07:10:40;;;;;;;5.50;1.90;;;;;;;;;;5081723;28;20059;-65
2023/10/30 07:13:07;;;;;;;10.05;2.45;;;;;;;;;;5087523;28;20504;-65
2023/10/30 07:15:33;;;;;;;5.03;1.50;;;;;;;;;;5093964;28;20063;-65
2023/10/30 07:18:02;;;;;;;6.00;2.38;;;;;;;;;;5091835;28;20050;-65
2023/10/30 07:20:28;;;;;;;8.15;1.90;;;;;;;;;;5097144;28;20047;-65
2023/10/30 07:22:55;;;;;;;6.93;1.98;;;;;;;;;;5097011;28;20051;-64
2023/10/30 07:25:22;;;;;;;6.65;2.10;;;;;;;;;;5096732;28;20579;-65
2023/10/30 07:27:49;;;;;;;4.20;2.22;;;;;;;;;;5103967;28;20082;-65
2023/10/30 07:30:16;;;;;;;6.90;1.85;;;;;;;;;;5093824;28;20040;-65
2023/10/30 07:32:43;;;;;;;6.60;1.90;;;;;;;;;;5099277;28;20473;-65
2023/10/30 07:35:12;;;;;;;4.13;2.00;;;;;;;;;;5106387;28;20055;-65
2023/10/30 07:37:38;;;;;;;5.13;1.80;;;;;;;;;;5101532;28;20485;-65
2023/10/30 07:40:06;;;;;;;6.97;2.20;;;;;;;;;;5104094;28;20393;-64
2023/10/30 07:42:33;;;;;;;5.60;2.10;;;;;;;;;;5108821;28;20144;-66
2023/10/30 07:44:59;;;;;;;4.40;1.85;;;;;;;;;;5108056;28;20059;-66
2023/10/30 07:47:26;;;;;;;5.63;1.80;;;;;;;;;;5100374;28;20055;-65
2023/10/30 07:49:53;;;;;;;4.78;2.08;;;;;;;;;;5105385;28;20060;-65
2023/10/30 07:52:21;;;;;;;5.70;2.20;;;;;;;;;;5100577;28;20044;-66
2023/10/30 07:54:48;;;;;;;6.28;1.70;;;;;;;;;;5086487;28;20703;-66
2023/10/30 07:57:15;;;;;;;5.72;1.92;;;;;;;;;;5089448;28;20047;-66
2023/10/30 07:59:42;;;;;;;5.05;2.00;;;;;;;;;;5087245;28;20052;-66
2023/10/30 08:02:08;;;;;;;4.18;1.73;;;;;;;;;;5094759;28;20396;-66
2023/10/30 08:04:35;;;;;;;4.68;1.90;;;;;;;;;;5100407;28;20058;-66
2023/10/30 08:07:02;;;;;;;5.90;1.70;;;;;;;;;;5100310;28;20492;-65
2023/10/30 08:09:30;;;;;;;4.97;1.70;;;;;;;;;;5103541;28;20526;-66
2023/10/30 08:11:57;;;;;;;4.20;1.67;;;;;;;;;;5100272;28;20055;-65
2023/10/30 08:14:24;;;;;;;7.10;1.90;;;;;;;;;;5099397;28;20055;-66
2023/10/30 08:16:51;;;;;;;4.35;1.65;;;;;;;;;;5102447;28;20064;-64
2023/10/30 08:19:18;;;;;;;4.93;1.77;;;;;;;;;;5104775;28;20055;-66
2023/10/30 08:21:45;;;;;;;6.15;1.75;;;;;;;;;;5098974;28;20055;-66
2023/10/30 08:24:12;;;;;;;4.10;1.42;;;;;;;;;;5105048;28;20063;-65
2023/10/30 08:26:40;;;;;;;4.72;1.63;;;;;;;;;;5095514;28;20481;-66
2023/10/30 08:29:07;;;;;;;3.60;1.70;;;;;;;;;;5097600;28;20047;-65
2023/10/30 08:31:33;;;;;;;6.88;1.83;;;;;;;;;;5103667;28;20049;-64
2023/10/30 08:34:01;;;;;;;5.28;1.52;;;;;;;;;;5098215;28;20051;-65
2023/10/30 08:36:27;;;;;;;5.40;1.75;;;;;;;;;;5097426;28;20054;-65
2023/10/30 08:38:54;;;;;;;4.07;1.45;;;;;;;;;;5096926;28;20059;-65
2023/10/30 08:41:22;;;;;;;7.93;1.60;;;;;;;;;;5096538;28;20068;-65
2023/10/30 08:43:50;;;;;;;4.07;1.35;;;;;;;;;;5096274;28;20492;-64
2023/10/30 08:46:17;;;;;;;5.10;1.40;;;;;;;;;;5102456;28;20052;-66
2023/10/30 08:48:44;;;;;;;3.35;1.58;;;;;;;;;;5097034;28;20047;-65
2023/10/30 08:51:11;;;;;;;4.65;1.77;;;;;;;;;;5094750;28;20044;-65
2023/10/30 08:53:39;;;;;;;3.67;1.35;;;;;;;;;;5096191;28;20055;-65
2023/10/30 08:56:06;;;;;;;2.65;1.20;;;;;;;;;;5107552;28;20078;-64
2023/10/30 08:58:33;;;;;;;3.33;1.27;;;;;;;;;;5096177;28;20471;-64
2023/10/30 09:01:01;;;;;;;3.60;1.50;;;;;;;;;;5092709;28;20062;-65
2023/10/30 09:03:28;;;;;;;3.60;1.20;;;;;;;;;;5096430;28;20056;-64
2023/10/30 09:05:55;;;;;;;2.15;1.08;;;;;;;;;;5101271;28;20062;-64
2023/10/30 09:08:22;;;;;;;3.30;1.20;;;;;;;;;;5095978;28;20532;-65
2023/10/30 09:10:48;;;;;;;3.10;1.20;;;;;;;;;;5089907;28;20056;-64
2023/10/30 09:13:15;;;;;;;3.22;1.10;;;;;;;;;;5091990;28;20115;-64
2023/10/30 09:15:42;;;;;;;2.40;1.10;;;;;;;;;;5095545;28;20131;-66
2023/10/30 09:18:10;;;;;;;5.00;1.25;;;;;;;;;;5098475;28;20047;-64
2023/10/30 09:20:37;;;;;;;3.05;1.00;;;;;;;;;;5095175;28;20055;-64
2023/10/30 09:23:04;;;;;;;3.55;1.23;;;;;;;;;;5105503;28;20055;-62
2023/10/30 09:25:31;;;;;;;2.45;0.88;;;;;;;;;;5096948;28;20056;-63
2023/10/30 09:27:58;;;;;;;3.03;1.13;;;;;;;;;;5101020;28;20505;-63
2023/10/30 09:30:30;;;;;;;2.42;1.00;;;;;;;;;;5100849;28;20063;-64
2023/10/30 09:32:57;;;;;;;3.40;1.30;;;;;;;;;;5092758;28;20052;-65
2023/10/30 09:35:25;;;;;;;1.92;1.02;;;;;;;;;;5095931;28;20594;-62
2023/10/30 09:37:52;;;;;;;3.75;1.15;;;;;;;;;;5083489;28;20440;-64
2023/10/30 09:40:22;;;;;;;2.22;1.15;;;;;;;;;;5096000;28;20048;-64
2023/10/30 09:42:50;;;;;;;4.13;1.02;;;;;;;;;;5095289;28;20051;-64
2023/10/30 09:45:18;;;;;;;1.85;0.82;;;;;;;;;;5093960;28;20526;-64
2023/10/30 09:47:45;;;;;;;2.08;0.90;;;;;;;;;;5101460;28;20416;-64
2023/10/30 09:50:12;;;;;;;2.00;0.85;;;;;;;;;;5097618;28;20060;-65
2023/10/30 09:52:40;;;;;;;2.15;1.05;;;;;;;;;;5093123;28;20103;-64
2023/10/30 09:55:10;;;;;;;2.40;0.95;;;;;;;;;;5099332;28;20132;-63
2023/10/30 09:57:37;;;;;;;3.30;0.88;;;;;;;;;;5084625;28;20063;-64
2023/10/30 10:00:05;;;;;;;1.75;0.82;;;;;;;;;;5088513;28;20066;-63
2023/10/30 10:02:33;;;;;;;2.42;0.73;;;;;;;;;;5089491;28;20400;-63
2023/10/30 10:05:00;;;;;;;3.42;0.73;;;;;;;;;;5091578;28;20060;-64
2023/10/30 10:07:27;;;;;;;2.15;0.80;;;;;;;;;;5099865;28;20086;-64
2023/10/30 10:09:58;;;;;;;1.52;0.70;;;;;;;;;;5092651;28;20085;-64
2023/10/30 10:12:25;;;;;;;2.33;1.10;;;;;;;;;;5094749;28;20071;-64
2023/10/30 10:14:52;;;;;;;4.45;0.85;;;;;;;;;;5102395;28;20520;-65
2023/10/30 10:17:19;;;;;;;2.70;0.90;;;;;;;;;;5098540;28;20060;-65
2023/10/30 10:19:46;;;;;;;1.42;0.80;;;;;;;;;;5102954;28;20052;-65
2023/10/30 10:22:26;;;;;;;1.42;0.80;;;;;;;;;;5099319;28;20052;-65
2023/10/30 10:24:53;;;;;;;1.88;0.70;;;;;;;;;;5097068;28;20412;-65
2023/10/30 10:27:21;;;;;;;1.90;0.60;;;;;;;;;;5096655;28;20043;-64
2023/10/30 10:29:52;;;;;;;3.00;0.68;;;;;;;;;;5087388;28;20055;-65
2023/10/30 10:32:19;;;;;;;1.73;0.57;;;;;;;;;;5098564;28;20048;-65
2023/10/30 10:34:48;;;;;;;2.40;0.82;;;;;;;;;;5101996;28;20059;-65
2023/10/30 10:37:18;;;;;;;1.80;0.70;;;;;;;;;;5100763;28;20055;-65
2023/10/30 10:39:48;;;;;;;3.40;0.80;;;;;;;;;;5090975;28;20064;-64
2023/10/30 10:42:17;;;;;;;1.67;0.77;;;;;;;;;;5096691;28;20541;-64
2023/10/30 10:44:46;;;;;;;2.13;0.80;;;;;;;;;;5103170;28;20047;-63
2023/10/30 10:47:13;;;;;;;1.52;0.65;;;;;;;;;;5099523;28;20059;-63
2023/10/30 10:49:40;;;;;;;1.75;0.75;;;;;;;;;;5094520;28;20047;-63
2023/10/30 10:52:09;;;;;;;1.83;0.80;;;;;;;;;;5100280;28;20055;-61
2023/10/30 10:54:41;;;;;;;1.35;0.63;;;;;;;;;;5093587;28;20047;-62
2023/10/30 10:57:09;;;;;;;2.35;0.63;;;;;;;;;;5099850;28;20048;-62
2023/10/30 10:59:37;;;;;;;1.63;0.67;;;;;;;;;;5094144;28;20062;-63
2023/10/30 11:02:10;;;;;;;3.55;1.15;;;;;;;;;;5085772;28;20048;-63
2023/10/30 11:04:37;;;;;;;1.27;0.60;;;;;;;;;;5100097;28;20059;-64
2023/10/30 11:07:10;;;;;;;1.73;0.90;;;;;;;;;;5099466;28;20055;-64
2023/10/30 11:09:41;;;;;;;1.55;0.60;;;;;;;;;;5090988;28;20477;-64
2023/10/30 11:12:12;;;;;;;4.53;1.88;;;;;;;;;;5097571;28;20055;-64
2023/10/30 11:14:44;;;;;;;1.25;0.55;;;;;;;;;;5096854;28;20052;-64
2023/10/30 11:17:12;;;;;;;3.17;2.30;;;;;;;;;;5098237;28;20052;-63
2023/10/30 11:19:39;;;;;;;1.50;0.70;;;;;;;;;;5083042;28;20634;-64
2023/10/30 11:22:06;;;;;;;1.20;0.60;;;;;;;;;;5101160;28;20047;-57
2023/10/30 11:24:37;;;;;;;1.73;0.50;;;;;;;;;;5104867;28;20404;-62
2023/10/30 11:27:19;;;;;;;0.60;0.25;;;;;;;;;;5097660;28;20051;-61
2023/10/30 11:29:53;;;;;;;0.88;0.38;;;;;;;;;;5097240;28;20048;-61
2023/10/30 11:32:22;;;;;;;0.98;0.50;;;;;;;;;;5098529;28;20048;-61
2023/10/30 11:34:49;;;;;;;1.17;0.40;;;;;;;;;;5107369;28;20500;-61
2023/10/30 11:37:19;;;;;;;0.93;0.50;;;;;;;;;;5106309;28;20047;-61
2023/10/30 11:39:45;;;;;;;;;;;;;;;;;;5096122;28;20048;-61
2023/10/30 11:42:27;;;;;;;0.70;0.30;;;;;;;;;;5096801;28;20373;-62
2023/10/30 11:45:14;;;;;;;0.73;0.40;;;;;;;;;;5090281;28;20420;-61
2023/10/30 11:47:44;;;;;;;1.35;0.43;;;;;;;;;;5098803;28;20056;-62
2023/10/30 11:50:10;;;;;;;1.90;0.30;;;;;;;;;;5096059;28;20515;-62
2023/10/30 11:52:38;;;;;;;2.42;1.40;;;;;;;;;;5100810;28;20150;-61
2023/10/30 11:55:05;;;;;;;0.73;0.38;;;;;;;;;;5102724;28;20055;-62
2023/10/30 11:57:32;;;;;;;0.98;0.30;;;;;;;;;;5095955;28;20060;-62
2023/10/30 12:00:00;;;;;;;0.82;0.40;;;;;;;;;;5099746;28;20051;-61
2023/10/30 12:02:27;;;;;;;0.95;0.40;;;;;;;;;;5098635;28;20499;-61
2023/10/30 12:04:56;;;;;;;1.17;0.30;;;;;;;;;;5097191;28;20059;-60
2023/10/30 12:07:22;;;;;;;1.00;0.38;;;;;;;;;;5100260;28;20060;-60
2023/10/30 12:09:50;;;;;;;1.30;0.30;;;;;;;;;;5100380;28;20055;-60
2023/10/30 12:12:17;;;;;;;1.60;0.40;;;;;;;;;;5105062;28;20126;-60
2023/10/30 12:14:44;;;;;;;0.90;0.40;;;;;;;;;;5105499;28;20058;-62
2023/10/30 12:17:13;;;;;;;1.40;0.40;;;;;;;;;;5103896;28;20055;-59
2023/10/30 12:19:40;;;;;;;1.40;0.40;;;;;;;;;;5106705;28;20365;-59
2023/10/30 12:22:08;;;;;;;2.42;0.40;;;;;;;;;;5103523;28;20427;-59
2023/10/30 12:24:35;;;;;;;0.80;0.40;;;;;;;;;;5108553;28;20056;-60
2023/10/30 12:27:02;;;;;;;1.00;0.30;;;;;;;;;;5104818;28;20063;-60
2023/10/30 12:29:29;;;;;;;1.45;0.40;;;;;;;;;;5107031;28;20059;-59
2023/10/30 12:32:04;;;;;;;1.08;0.30;;;;;;;;;;5104099;28;20047;-60
2023/10/30 12:34:35;;;;;;;1.10;0.32;;;;;;;;;;5102048;28;20070;-60
2023/10/30 12:37:16;;;;;;;2.80;0.52;;;;;;;;;;5099208;28;20052;-62
2023/10/30 12:39:59;;;;;;;1.55;0.50;;;;;;;;;;5105155;28;20058;-59
2023/10/30 12:42:27;;;;;;;1.00;0.30;;;;;;;;;;5105229;28;20062;-59
2023/10/30 12:44:53;;;;;;;0.68;0.30;;;;;;;;;;5108511;28;20067;-59
2023/10/30 12:47:20;;;;;;;0.77;0.22;;;;;;;;;;5105322;28;20047;-60
2023/10/30 12:49:47;;;;;;;1.15;0.30;;;;;;;;;;5108460;28;20059;-59
2023/10/30 12:52:15;;;;;;;1.20;0.30;;;;;;;;;;5103149;28;20050;-61
2023/10/30 12:54:42;;;;;;;2.75;0.45;;;;;;;;;;5099843;28;20055;-59
2023/10/30 12:57:09;;;;;;;2.03;0.47;;;;;;;;;;5102901;28;20055;-60
2023/10/30 12:59:36;;;;;;;1.48;0.40;;;;;;;;;;5098446;28;20047;-60
2023/10/30 13:02:03;;;;;;;0.82;0.30;;;;;;;;;;5091806;28;20056;-60
2023/10/30 13:04:30;;;;;;;1.38;0.28;;;;;;;;;;5096347;28;20044;-59
2023/10/30 13:06:56;;;;;;;0.50;0.20;;;;;;;;;;5100516;28;20051;-60
2023/10/30 13:09:25;;;;;;;2.53;1.48;;;;;;;;;;5104633;28;20792;-59
2023/10/30 13:11:51;;;;;;;2.55;0.57;;;;;;;;;;5103350;28;20430;-60
2023/10/30 13:14:18;;;;;;;0.80;0.30;;;;;;;;;;5099202;28;20055;-60
2023/10/30 13:16:45;;;;;;;0.70;0.32;;;;;;;;;;5102294;28;20499;-60
2023/10/30 13:19:12;;;;;;;0.75;0.30;;;;;;;;;;5100942;28;20511;-60
2023/10/30 13:21:39;;;;;;;0.65;0.30;;;;;;;;;;5106683;28;20047;-60
2023/10/30 13:24:07;;;;;;;0.80;0.30;;;;;;;;;;5103301;28;20074;-60
2023/10/30 13:26:35;;;;;;;1.47;0.30;;;;;;;;;;5095340;28;20048;-61
2023/10/30 13:29:02;;;;;;;0.88;0.47;;;;;;;;;;5098519;28;20480;-60
2023/10/30 13:31:29;;;;;;;0.40;0.20;;;;;;;;;;5095998;28;20056;-60
2023/10/30 13:33:56;;;;;;;0.77;0.30;;;;;;;;;;5090907;28;20047;-59
2023/10/30 13:36:23;;;;;;;1.10;0.40;;;;;;;;;;5091735;28;20055;-60
2023/10/30 13:38:50;;;;;;;1.92;0.40;;;;;;;;;;5093460;28;20413;-36
2023/10/30 13:41:17;;;;;;;5.25;0.38;;;;;;;;;;5093566;28;20044;-60
2023/10/30 13:43:45;;;;;;;1.33;0.47;;;;;;;;;;5097616;28;20048;-59
2023/10/30 13:46:12;;;;;;;0.57;0.20;;;;;;;;;;5099173;28;20055;-58
2023/10/30 13:48:39;;;;;;;1.20;0.22;;;;;;;;;;5096860;28;20059;-59
2023/10/30 13:51:07;;;;;;;0.70;0.30;;;;;;;;;;5094764;28;20052;-60
2023/10/30 13:53:37;;;;;;;1.00;0.30;;;;;;;;;;5087597;28;20492;-60
2023/10/30 13:56:04;;;;;;;1.08;0.52;;;;;;;;;;5096068;28;20493;-62
2023/10/30 13:58:34;;;;;;;1.08;0.20;;;;;;;;;;5095234;28;20511;-59
2023/10/30 14:01:02;;;;;;;0.57;0.30;;;;;;;;;;5098069;28;20055;-59
2023/10/30 14:03:29;;;;;;;0.52;0.22;;;;;;;;;;5094898;28;20048;-59
2023/10/30 14:05:56;;;;;;;0.88;0.30;;;;;;;;;;5093551;28;20059;-60
2023/10/30 14:08:23;;;;;;;1.63;0.50;;;;;;;;;;5094502;28;20058;-60
2023/10/30 14:10:50;;;;;;;0.47;0.20;;;;;;;;;;5103537;28;20067;-58
2023/10/30 14:13:24;;;;;;;1.23;0.45;;;;;;;;;;5096191;28;20048;-58
2023/10/30 14:15:51;;;;;;;1.25;0.50;;;;;;;;;;5095182;28;20546;-59
2023/10/30 14:18:19;;;;;;;3.22;0.57;;;;;;;;;;5092889;28;20044;-59
2023/10/30 14:20:46;;;;;;;0.73;0.30;;;;;;;;;;5087025;28;20044;-60
2023/10/30 14:23:13;;;;;;;1.45;0.55;;;;;;;;;;5089804;28;20055;-59
2023/10/30 14:25:39;;;;;;;0.70;0.40;;;;;;;;;;5092903;28;20044;-59
2023/10/30 14:28:06;;;;;;;2.35;0.70;;;;;;;;;;5092205;28;20474;-60
2023/10/30 14:30:33;;;;;;;6.22;0.90;;;;;;;;;;5084885;28;20051;-60
2023/10/30 14:33:00;;;;;;;4.07;0.90;;;;;;;;;;5097107;28;20055;-59
2023/10/30 14:35:31;;;;;;;2.50;0.70;;;;;;;;;;5090567;28;20401;-60
2023/10/30 14:37:58;;;;;;;0.63;0.30;;;;;;;;;;5098994;28;20063;-60
2023/10/30 14:40:25;;;;;;;1.88;0.50;;;;;;;;;;5092781;28;20060;-59
2023/10/30 14:42:54;;;;;;;0.73;0.50;;;;;;;;;;5097027;28;20060;-59
2023/10/30 14:45:20;;;;;;;1.30;0.40;;;;;;;;;;5091644;28;20501;-60